Private Wetterstation Sandau
Wetterdaten: Sonntag, 27.05.2012
Datum Zeit Temp. A. Feuchte A. Luftdruck Regen Wind Richtung Richtung Taupunkt Windchill
27.05.2012 00:01 17,9 C 45 % 1023,7 hPa 0,0 l/m 0,0 km/h (0 Bft) O 90 5,8 C 17,9 C
27.05.2012 00:06 17,9 C 46 % 1023,7 hPa 0,0 l/m 0,0 km/h (0 Bft) O-SO 112 6,1 C 17,9 C
27.05.2012 00:11 17,8 C 47 % 1023,5 hPa 0,0 l/m 0,0 km/h (0 Bft) O 90 6,3 C 17,8 C
27.05.2012 00:16 17,7 C 48 % 1023,6 hPa 0,0 l/m 0,0 km/h (0 Bft) O 90 6,6 C 17,7 C
27.05.2012 00:21 17,5 C 48 % 1023,6 hPa 0,0 l/m 0,0 km/h (0 Bft) O-NO 67 6,4 C 17,5 C
27.05.2012 00:26 17,4 C 49 % 1023,5 hPa 0,0 l/m 0,0 km/h (0 Bft) NO 45 6,6 C 17,4 C
27.05.2012 00:31 17,3 C 49 % 1023,5 hPa 0,0 l/m 0,0 km/h (0 Bft) O-NO 67 6,5 C 17,3 C
27.05.2012 00:36 17,2 C 49 % 1023,4 hPa 0,0 l/m 0,0 km/h (0 Bft) O-NO 67 6,4 C 17,2 C
27.05.2012 00:41 17,1 C 49 % 1023,3 hPa 0,0 l/m 0,0 km/h (0 Bft) O-SO 112 6,3 C 17,1 C
27.05.2012 00:46 17,1 C 49 % 1023,4 hPa 0,0 l/m 0,0 km/h (0 Bft) O 90 6,3 C 17,1 C
27.05.2012 00:51 17,2 C 50 % 1023,4 hPa 0,0 l/m 0,0 km/h (0 Bft) O-NO 67 6,7 C 17,2 C
27.05.2012 00:56 17,2 C 50 % 1023,4 hPa 0,0 l/m 0,0 km/h (0 Bft) O-NO 67 6,7 C 17,2 C
27.05.2012 01:01 17,1 C 50 % 1023,4 hPa 0,0 l/m 0,0 km/h (0 Bft) O-NO 67 6,6 C 17,1 C
27.05.2012 01:06 17,1 C 50 % 1023,3 hPa 0,0 l/m 0,0 km/h (0 Bft) O-NO 67 6,6 C 17,1 C
27.05.2012 01:11 17,1 C 51 % 1023,4 hPa 0,0 l/m 0,0 km/h (0 Bft) O 90 6,9 C 17,1 C
27.05.2012 01:16 16,9 C 51 % 1023,4 hPa 0,0 l/m 0,0 km/h (0 Bft) O-NO 67 6,7 C 16,9 C
27.05.2012 01:21 16,8 C 51 % 1023,4 hPa 0,0 l/m 0,0 km/h (0 Bft) O 90 6,6 C 16,8 C
27.05.2012 01:26 16,8 C 51 % 1023,3 hPa 0,0 l/m 0,0 km/h (0 Bft) O-NO 67 6,6 C 16,8 C
27.05.2012 01:31 16,6 C 51 % 1023,4 hPa 0,0 l/m 0,0 km/h (0 Bft) O-NO 67 6,4 C 16,6 C
27.05.2012 01:36 16,6 C 52 % 1023,3 hPa 0,0 l/m 0,0 km/h (0 Bft) O-NO 67 6,7 C 16,6 C
27.05.2012 01:41 16,6 C 52 % 1023,3 hPa 0,0 l/m 0,0 km/h (0 Bft) O-NO 67 6,7 C 16,6 C
27.05.2012 01:46 16,5 C 52 % 1023,2 hPa 0,0 l/m 0,0 km/h (0 Bft) O 90 6,6 C 16,5 C
27.05.2012 01:51 16,4 C 52 % 1023,3 hPa 0,0 l/m 0,0 km/h (0 Bft) O-NO 67 6,5 C 16,4 C
27.05.2012 01:56 16,4 C 52 % 1023,3 hPa 0,0 l/m 0,0 km/h (0 Bft) O 90 6,5 C 16,4 C
27.05.2012 02:01 16,4 C 52 % 1023,3 hPa 0,0 l/m 0,0 km/h (0 Bft) O 90 6,5 C 16,4 C
27.05.2012 02:06 16,3 C 52 % 1023,3 hPa 0,0 l/m 0,0 km/h (0 Bft) O-NO 67 6,4 C 16,3 C
27.05.2012 02:11 16,2 C 52 % 1023,4 hPa 0,0 l/m 0,0 km/h (0 Bft) O 90 6,3 C 16,2 C
27.05.2012 02:16 16,2 C 52 % 1023,4 hPa 0,0 l/m 0,0 km/h (0 Bft) O 90 6,3 C 16,2 C
27.05.2012 02:21 16,2 C 52 % 1023,3 hPa 0,0 l/m 0,0 km/h (0 Bft) O-NO 67 6,3 C 16,2 C
27.05.2012 02:26 16,2 C 52 % 1023,3 hPa 0,0 l/m 0,0 km/h (0 Bft) O-NO 67 6,3 C 16,2 C
27.05.2012 02:31 16,2 C 52 % 1023,3 hPa 0,0 l/m 0,0 km/h (0 Bft) O-NO 67 6,3 C 16,2 C
27.05.2012 02:36 16,2 C 52 % 1023,2 hPa 0,0 l/m 0,0 km/h (0 Bft) O-NO 67 6,3 C 16,2 C
27.05.2012 02:41 16,0 C 53 % 1023,3 hPa 0,0 l/m 0,0 km/h (0 Bft) O-SO 112 6,4 C 16,0 C
27.05.2012 02:46 15,9 C 53 % 1023,2 hPa 0,0 l/m 0,0 km/h (0 Bft) O 90 6,3 C 15,9 C
27.05.2012 02:51 15,9 C 53 % 1023,2 hPa 0,0 l/m 0,0 km/h (0 Bft) O 90 6,3 C 15,9 C
27.05.2012 02:56 15,8 C 53 % 1023,2 hPa 0,0 l/m 0,0 km/h (0 Bft) O-NO 67 6,2 C 15,8 C
27.05.2012 03:01 15,8 C 53 % 1023,2 hPa 0,0 l/m 0,0 km/h (0 Bft) O-NO 67 6,2 C 15,8 C
27.05.2012 03:06 15,6 C 53 % 1023,2 hPa 0,0 l/m 0,0 km/h (0 Bft) O-NO 67 6,1 C 15,6 C
27.05.2012 03:11 15,6 C 53 % 1023,2 hPa 0,0 l/m 0,0 km/h (0 Bft) O 90 6,1 C 15,6 C
27.05.2012 03:16 15,6 C 53 % 1023,2 hPa 0,0 l/m 0,0 km/h (0 Bft) O-NO 67 6,1 C 15,6 C
27.05.2012 03:21 15,5 C 53 % 1023,2 hPa 0,0 l/m 0,0 km/h (0 Bft) O 90 6,0 C 15,5 C
27.05.2012 03:26 15,5 C 53 % 1023,2 hPa 0,0 l/m 0,0 km/h (0 Bft) O-NO 67 6,0 C 15,5 C
27.05.2012 03:31 15,4 C 53 % 1023,2 hPa 0,0 l/m 0,0 km/h (0 Bft) O-NO 67 5,9 C 15,4 C
27.05.2012 03:36 15,3 C 53 % 1023,2 hPa 0,0 l/m 0,0 km/h (0 Bft) O-NO 67 5,8 C 15,3 C
27.05.2012 03:41 15,2 C 53 % 1023,0 hPa 0,0 l/m 0,0 km/h (0 Bft) O 90 5,7 C 15,2 C
27.05.2012 03:46 15,2 C 54 % 1023,3 hPa 0,0 l/m 0,0 km/h (0 Bft) O-NO 67 6,0 C 15,2 C
27.05.2012 03:51 15,2 C 54 % 1023,2 hPa 0,0 l/m 0,0 km/h (0 Bft) O-NO 67 6,0 C 15,2 C
27.05.2012 03:56 15,2 C 54 % 1023,2 hPa 0,0 l/m 0,0 km/h (0 Bft) O-NO 67 6,0 C 15,2 C
27.05.2012 04:01 15,1 C 54 % 1023,2 hPa 0,0 l/m 0,0 km/h (0 Bft) O-NO 67 5,9 C 15,1 C
27.05.2012 04:06 14,9 C 54 % 1023,0 hPa 0,0 l/m 0,0 km/h (0 Bft) O-NO 67 5,7 C 14,9 C
27.05.2012 04:11 14,9 C 54 % 1023,0 hPa 0,0 l/m 0,0 km/h (0 Bft) O-NO 67 5,7 C 14,9 C
27.05.2012 04:16 14,9 C 54 % 1023,1 hPa 0,0 l/m 0,0 km/h (0 Bft) O-NO 67 5,7 C 14,9 C
27.05.2012 04:21 14,9 C 54 % 1023,1 hPa 0,0 l/m 0,0 km/h (0 Bft) O-NO 67 5,7 C 14,9 C
27.05.2012 04:26 14,9 C 54 % 1023,1 hPa 0,0 l/m 0,0 km/h (0 Bft) NO 45 5,7 C 14,9 C
27.05.2012 04:31 14,8 C 54 % 1023,0 hPa 0,0 l/m 0,0 km/h (0 Bft) O-NO 67 5,6 C 14,8 C
27.05.2012 04:36 14,6 C 55 % 1023,2 hPa 0,0 l/m 0,0 km/h (0 Bft) O-NO 67 5,7 C 14,6 C
27.05.2012 04:41 14,5 C 55 % 1023,0 hPa 0,0 l/m 0,0 km/h (0 Bft) O-NO 67 5,6 C 14,5 C
27.05.2012 04:46 14,5 C 55 % 1023,1 hPa 0,0 l/m 0,0 km/h (0 Bft) O-SO 112 5,6 C 14,5 C
27.05.2012 04:51 14,4 C 55 % 1023,0 hPa 0,0 l/m 0,0 km/h (0 Bft) O-NO 67 5,5 C 14,4 C
27.05.2012 04:56 14,3 C 55 % 1023,0 hPa 0,0 l/m 0,0 km/h (0 Bft) O 90 5,4 C 14,3 C
27.05.2012 05:01 14,3 C 55 % 1022,9 hPa 0,0 l/m 0,0 km/h (0 Bft) O 90 5,4 C 14,3 C
27.05.2012 05:06 14,3 C 56 % 1023,0 hPa 0,0 l/m 0,0 km/h (0 Bft) O-NO 67 5,6 C 14,3 C
27.05.2012 05:11 14,2 C 56 % 1022,9 hPa 0,0 l/m 0,0 km/h (0 Bft) O-NO 67 5,6 C 14,2 C
27.05.2012 05:16 14,2 C 56 % 1023,0 hPa 0,0 l/m 0,0 km/h (0 Bft) O-NO 67 5,6 C 14,2 C
27.05.2012 05:21 14,2 C 56 % 1022,9 hPa 0,0 l/m 0,0 km/h (0 Bft) NO 45 5,6 C 14,2 C
27.05.2012 05:26 14,1 C 56 % 1022,9 hPa 0,0 l/m 0,0 km/h (0 Bft) NO 45 5,5 C 14,1 C
27.05.2012 05:31 14,1 C 56 % 1022,9 hPa 0,0 l/m 0,0 km/h (0 Bft) O 90 5,5 C 14,1 C
27.05.2012 05:36 13,9 C 56 % 1023,0 hPa 0,0 l/m 0,0 km/h (0 Bft) O 90 5,3 C 13,9 C
27.05.2012 05:41 14,0 C 57 % 1023,0 hPa 0,0 l/m 0,0 km/h (0 Bft) O 90 5,6 C 14,0 C
27.05.2012 05:46 14,4 C 57 % 1023,0 hPa 0,0 l/m 0,0 km/h (0 Bft) O-NO 67 6,0 C 14,4 C
27.05.2012 05:51 14,9 C 56 % 1022,9 hPa 0,0 l/m 0,0 km/h (0 Bft) O 90 6,2 C 14,9 C
27.05.2012 05:56 15,3 C 55 % 1022,8 hPa 0,0 l/m 0,0 km/h (0 Bft) NO 45 6,3 C 15,3 C
27.05.2012 06:01 15,6 C 54 % 1022,9 hPa 0,0 l/m 0,0 km/h (0 Bft) O 90 6,3 C 15,6 C
27.05.2012 06:06 15,5 C 53 % 1022,7 hPa 0,0 l/m 0,0 km/h (0 Bft) O-NO 67 6,0 C 15,5 C
27.05.2012 06:11 15,1 C 53 % 1022,7 hPa 0,0 l/m 0,0 km/h (0 Bft) O 90 5,6 C 15,1 C
27.05.2012 06:16 14,8 C 54 % 1022,7 hPa 0,0 l/m 0,0 km/h (0 Bft) O-NO 67 5,6 C 14,8 C
27.05.2012 06:21 14,4 C 55 % 1022,7 hPa 0,0 l/m 0,0 km/h (0 Bft) O 90 5,5 C 14,4 C
27.05.2012 06:26 14,3 C 56 % 1022,7 hPa 0,0 l/m 0,0 km/h (0 Bft) O 90 5,6 C 14,3 C
27.05.2012 06:31 14,3 C 56 % 1022,7 hPa 0,0 l/m 0,0 km/h (0 Bft) O 90 5,6 C 14,3 C
27.05.2012 06:36 14,4 C 57 % 1022,9 hPa 0,0 l/m 0,0 km/h (0 Bft) O-NO 67 6,0 C 14,4 C
27.05.2012 06:41 14,7 C 57 % 1022,8 hPa 0,0 l/m 0,0 km/h (0 Bft) O-NO 67 6,3 C 14,7 C
27.05.2012 06:46 14,9 C 56 % 1022,8 hPa 0,0 l/m 0,0 km/h (0 Bft) NO 45 6,2 C 14,9 C
27.05.2012 06:51 15,3 C 56 % 1022,8 hPa 0,0 l/m 0,0 km/h (0 Bft) O-NO 67 6,6 C 15,3 C
27.05.2012 06:56 15,6 C 55 % 1023,0 hPa 0,0 l/m 4,0 km/h (1 Bft) NO 45 6,6 C 15,6 C
27.05.2012 07:01 15,5 C 54 % 1023,0 hPa 0,0 l/m 0,0 km/h (0 Bft) O-NO 67 6,2 C 15,5 C
27.05.2012 07:06 15,4 C 54 % 1022,9 hPa 0,0 l/m 0,0 km/h (0 Bft) O-NO 67 6,1 C 15,4 C
27.05.2012 07:11 15,4 C 54 % 1023,1 hPa 0,0 l/m 0,0 km/h (0 Bft) O-SO 112 6,1 C 15,4 C
27.05.2012 07:16 15,4 C 54 % 1023,1 hPa 0,0 l/m 0,0 km/h (0 Bft) O-NO 67 6,1 C 15,4 C
27.05.2012 07:21 15,5 C 54 % 1023,0 hPa 0,0 l/m 0,0 km/h (0 Bft) O 90 6,2 C 15,5 C
27.05.2012 07:26 15,6 C 54 % 1023,1 hPa 0,0 l/m 0,0 km/h (0 Bft) O-SO 112 6,3 C 15,6 C
27.05.2012 07:31 15,6 C 54 % 1023,2 hPa 0,0 l/m 0,0 km/h (0 Bft) O 90 6,3 C 15,6 C
27.05.2012 07:36 15,9 C 54 % 1023,2 hPa 0,0 l/m 0,0 km/h (0 Bft) O-NO 67 6,6 C 15,9 C
27.05.2012 07:41 16,1 C 53 % 1023,3 hPa 0,0 l/m 0,0 km/h (0 Bft) O 90 6,5 C 16,1 C
27.05.2012 07:46 16,2 C 53 % 1023,2 hPa 0,0 l/m 0,0 km/h (0 Bft) O-SO 112 6,6 C 16,2 C
27.05.2012 07:51 16,3 C 53 % 1023,3 hPa 0,0 l/m 0,0 km/h (0 Bft) O-SO 112 6,7 C 16,3 C
27.05.2012 07:56 16,3 C 53 % 1023,2 hPa 0,0 l/m 0,0 km/h (0 Bft) O-SO 112 6,7 C 16,3 C
27.05.2012 08:01 16,4 C 53 % 1023,2 hPa 0,0 l/m 0,0 km/h (0 Bft) O-NO 67 6,8 C 16,4 C
27.05.2012 08:06 16,5 C 52 % 1023,2 hPa 0,0 l/m 0,0 km/h (0 Bft) O 90 6,6 C 16,5 C
27.05.2012 08:11 16,9 C 52 % 1023,2 hPa 0,0 l/m 0,0 km/h (0 Bft) O-SO 112 7,0 C 16,9 C
27.05.2012 08:16 17,1 C 52 % 1023,2 hPa 0,0 l/m 6,1 km/h (2 Bft) O-SO 112 7,2 C 17,1 C
27.05.2012 08:21 17,3 C 51 % 1023,1 hPa 0,0 l/m 7,9 km/h (2 Bft) O 90 7,1 C 17,3 C
27.05.2012 08:26 17,5 C 51 % 1023,3 hPa 0,0 l/m 0,0 km/h (0 Bft) O-SO 112 7,3 C 17,5 C
27.05.2012 08:31 17,7 C 51 % 1023,1 hPa 0,0 l/m 0,0 km/h (0 Bft) SO 135 7,4 C 17,7 C
27.05.2012 08:36 17,9 C 50 % 1023,1 hPa 0,0 l/m 0,0 km/h (0 Bft) O 90 7,3 C 17,9 C
27.05.2012 08:41 17,9 C 49 % 1023,1 hPa 0,0 l/m 0,0 km/h (0 Bft) O-NO 67 7,0 C 17,9 C
27.05.2012 08:46 18,0 C 49 % 1023,2 hPa 0,0 l/m 0,0 km/h (0 Bft) O 90 7,1 C 18,0 C
27.05.2012 08:51 18,1 C 49 % 1023,2 hPa 0,0 l/m 0,0 km/h (0 Bft) SO 135 7,2 C 18,1 C
27.05.2012 08:56 18,2 C 49 % 1023,0 hPa 0,0 l/m 0,0 km/h (0 Bft) O 90 7,3 C 18,2 C
27.05.2012 09:01 18,4 C 49 % 1023,0 hPa 0,0 l/m 0,0 km/h (0 Bft) O 90 7,5 C 18,4 C
27.05.2012 09:06 18,5 C 48 % 1023,0 hPa 0,0 l/m 0,0 km/h (0 Bft) O-NO 67 7,3 C 18,5 C
27.05.2012 09:11 18,6 C 48 % 1022,9 hPa 0,0 l/m 0,0 km/h (0 Bft) O 90 7,4 C 18,6 C
27.05.2012 09:16 18,8 C 48 % 1023,0 hPa 0,0 l/m 0,0 km/h (0 Bft) O-NO 67 7,6 C 18,8 C
27.05.2012 09:21 19,1 C 48 % 1023,1 hPa 0,0 l/m 0,0 km/h (0 Bft) NO 45 7,8 C 19,1 C
27.05.2012 09:26 19,1 C 47 % 1022,9 hPa 0,0 l/m 0,0 km/h (0 Bft) O-SO 112 7,5 C 19,1 C
27.05.2012 09:31 19,2 C 47 % 1023,1 hPa 0,0 l/m 0,0 km/h (0 Bft) O-SO 112 7,6 C 19,2 C
27.05.2012 09:36 19,3 C 47 % 1023,1 hPa 0,0 l/m 3,6 km/h (1 Bft) O 90 7,7 C 19,3 C
27.05.2012 09:41 19,4 C 47 % 1023,0 hPa 0,0 l/m 0,0 km/h (0 Bft) S-SO 157 7,8 C 19,4 C
27.05.2012 09:46 19,6 C 47 % 1022,9 hPa 0,0 l/m 0,0 km/h (0 Bft) O-NO 67 8,0 C 19,6 C
27.05.2012 09:51 19,7 C 47 % 1022,7 hPa 0,0 l/m 5,0 km/h (1 Bft) N 360 8,1 C 19,7 C
27.05.2012 09:56 19,8 C 47 % 1022,6 hPa 0,0 l/m 0,0 km/h (0 Bft) SO 135 8,2 C 19,8 C
27.05.2012 10:01 19,9 C 47 % 1022,8 hPa 0,0 l/m 0,0 km/h (0 Bft) O 90 8,3 C 19,9 C
27.05.2012 10:06 19,9 C 46 % 1022,8 hPa 0,0 l/m 0,0 km/h (0 Bft) O-NO 67 7,9 C 19,9 C
27.05.2012 10:11 19,9 C 46 % 1022,7 hPa 0,0 l/m 0,0 km/h (0 Bft) O-NO 67 7,9 C 19,9 C
27.05.2012 10:16 20,1 C 46 % 1022,6 hPa 0,0 l/m 0,0 km/h (0 Bft) O-SO 112 8,1 C 20,1 C
27.05.2012 10:21 20,3 C 46 % 1022,8 hPa 0,0 l/m 0,0 km/h (0 Bft) NO 45 8,3 C 20,3 C
27.05.2012 10:26 20,6 C 46 % 1022,6 hPa 0,0 l/m 0,0 km/h (0 Bft) SO 135 8,6 C 20,6 C
27.05.2012 10:31 20,9 C 45 % 1022,7 hPa 0,0 l/m 0,0 km/h (0 Bft) O 90 8,5 C 20,9 C
27.05.2012 10:36 21,0 C 45 % 1022,6 hPa 0,0 l/m 0,0 km/h (0 Bft) SO 135 8,6 C 21,0 C
27.05.2012 10:41 21,2 C 45 % 1022,6 hPa 0,0 l/m 0,0 km/h (0 Bft) SO 135 8,8 C 21,2 C
27.05.2012 10:46 21,3 C 44 % 1022,6 hPa 0,0 l/m 0,0 km/h (0 Bft) O-NO 67 8,5 C 21,3 C
27.05.2012 10:51 21,3 C 44 % 1022,5 hPa 0,0 l/m 0,0 km/h (0 Bft) NW 315 8,5 C 21,3 C
27.05.2012 10:56 21,4 C 44 % 1022,4 hPa 0,0 l/m 0,0 km/h (0 Bft) O 90 8,6 C 21,4 C
27.05.2012 11:01 21,6 C 44 % 1022,4 hPa 0,0 l/m 0,0 km/h (0 Bft) O 90 8,8 C 21,6 C
27.05.2012 11:06 21,7 C 43 % 1022,4 hPa 0,0 l/m 0,0 km/h (0 Bft) O-NO 67 8,6 C 21,7 C
27.05.2012 11:11 21,8 C 43 % 1022,4 hPa 0,0 l/m 0,0 km/h (0 Bft) O-SO 112 8,7 C 21,8 C
27.05.2012 11:16 21,8 C 43 % 1022,4 hPa 0,0 l/m 0,0 km/h (0 Bft) O-SO 112 8,7 C 21,8 C
27.05.2012 11:21 21,9 C 43 % 1022,3 hPa 0,0 l/m 6,1 km/h (2 Bft) O 90 8,7 C 21,9 C
27.05.2012 11:26 22,2 C 43 % 1022,2 hPa 0,0 l/m 1,1 km/h (1 Bft) O-SO 112 9,0 C 22,2 C
27.05.2012 11:31 22,4 C 42 % 1022,1 hPa 0,0 l/m 2,2 km/h (1 Bft) O-SO 112 8,9 C 22,4 C
27.05.2012 11:36 22,4 C 42 % 1022,0 hPa 0,0 l/m 3,6 km/h (1 Bft) SW 225 8,9 C 22,4 C
27.05.2012 11:41 22,4 C 42 % 1022,1 hPa 0,0 l/m 3,6 km/h (1 Bft) O-NO 67 8,9 C 22,4 C
27.05.2012 11:46 22,4 C 41 % 1021,9 hPa 0,0 l/m 4,7 km/h (1 Bft) SO 135 8,5 C 22,4 C
27.05.2012 11:51 22,6 C 40 % 1022,0 hPa 0,0 l/m 2,9 km/h (1 Bft) O-SO 112 8,3 C 22,6 C
27.05.2012 11:56 22,7 C 41 % 1022,0 hPa 0,0 l/m 6,1 km/h (2 Bft) SO 135 8,8 C 22,7 C
27.05.2012 12:01 22,9 C 40 % 1021,9 hPa 0,0 l/m 5,8 km/h (2 Bft) O-SO 112 8,6 C 22,9 C
27.05.2012 12:06 23,1 C 39 % 1021,7 hPa 0,0 l/m 7,2 km/h (2 Bft) O-NO 67 8,4 C 23,1 C
27.05.2012 12:11 23,1 C 39 % 1021,8 hPa 0,0 l/m 4,3 km/h (1 Bft) SO 135 8,4 C 23,1 C
27.05.2012 12:16 23,3 C 38 % 1021,8 hPa 0,0 l/m 4,0 km/h (1 Bft) O 90 8,2 C 23,3 C
27.05.2012 12:21 23,4 C 38 % 1021,8 hPa 0,0 l/m 6,5 km/h (2 Bft) O 90 8,3 C 23,4 C
27.05.2012 12:26 23,3 C 38 % 1021,8 hPa 0,0 l/m 8,6 km/h (2 Bft) SO 135 8,2 C 23,3 C
27.05.2012 12:31 23,4 C 38 % 1021,6 hPa 0,0 l/m 7,2 km/h (2 Bft) O 90 8,3 C 23,4 C
27.05.2012 12:36 23,7 C 38 % 1021,7 hPa 0,0 l/m 3,2 km/h (1 Bft) S-SO 157 8,5 C 23,7 C
27.05.2012 12:41 23,8 C 38 % 1021,7 hPa 0,0 l/m 2,5 km/h (1 Bft) O-NO 67 8,6 C 23,8 C
27.05.2012 12:46 23,8 C 38 % 1021,5 hPa 0,0 l/m 7,6 km/h (2 Bft) SO 135 8,6 C 23,8 C
27.05.2012 12:51 23,8 C 37 % 1021,5 hPa 0,0 l/m 7,9 km/h (2 Bft) O-SO 112 8,2 C 23,8 C
27.05.2012 12:56 23,7 C 37 % 1021,4 hPa 0,0 l/m 6,1 km/h (2 Bft) SO 135 8,1 C 23,7 C
27.05.2012 13:01 23,7 C 37 % 1021,5 hPa 0,0 l/m 1,8 km/h (1 Bft) W 270 8,1 C 23,7 C
27.05.2012 13:06 24,0 C 38 % 1021,5 hPa 0,0 l/m 7,2 km/h (2 Bft) S 180 8,8 C 24,0 C
27.05.2012 13:11 24,4 C 37 % 1021,5 hPa 0,0 l/m 5,0 km/h (1 Bft) NO 45 8,8 C 24,4 C
27.05.2012 13:16 24,3 C 36 % 1021,3 hPa 0,0 l/m 2,5 km/h (1 Bft) O 90 8,3 C 24,3 C
27.05.2012 13:21 24,3 C 37 % 1021,3 hPa 0,0 l/m 6,5 km/h (2 Bft) SO 135 8,7 C 24,3 C
27.05.2012 13:26 24,4 C 36 % 1021,2 hPa 0,0 l/m 5,4 km/h (1 Bft) O 90 8,4 C 24,4 C
27.05.2012 13:31 24,5 C 36 % 1021,1 hPa 0,0 l/m 2,9 km/h (1 Bft) O-NO 67 8,4 C 24,5 C
27.05.2012 13:36 24,6 C 36 % 1021,1 hPa 0,0 l/m 3,6 km/h (1 Bft) O 90 8,5 C 24,6 C
27.05.2012 13:41 24,9 C 36 % 1021,0 hPa 0,0 l/m 9,0 km/h (2 Bft) SW 225 8,8 C 24,9 C
27.05.2012 13:46 25,1 C 36 % 1021,0 hPa 0,0 l/m 3,6 km/h (1 Bft) SO 135 9,0 C 25,1 C
27.05.2012 13:51 25,3 C 36 % 1020,9 hPa 0,0 l/m 5,8 km/h (2 Bft) S-SO 157 9,1 C 25,3 C
27.05.2012 13:56 25,6 C 35 % 1020,8 hPa 0,0 l/m 10,1 km/h (2 Bft) SO 135 9,0 C 25,6 C
27.05.2012 14:01 25,8 C 33 % 1020,7 hPa 0,0 l/m 5,4 km/h (1 Bft) NO 45 8,3 C 25,8 C
27.05.2012 14:06 25,5 C 34 % 1020,7 hPa 0,0 l/m 8,6 km/h (2 Bft) NO 45 8,5 C 25,5 C
27.05.2012 14:11 25,4 C 34 % 1020,7 hPa 0,0 l/m 7,6 km/h (2 Bft) O 90 8,4 C 25,4 C
27.05.2012 14:16 25,3 C 35 % 1020,6 hPa 0,0 l/m 1,4 km/h (1 Bft) SO 135 8,7 C 25,3 C
27.05.2012 14:21 25,4 C 35 % 1020,6 hPa 0,0 l/m 9,7 km/h (2 Bft) SO 135 8,8 C 25,4 C
27.05.2012 14:26 25,4 C 35 % 1020,4 hPa 0,0 l/m 3,2 km/h (1 Bft) O 90 8,8 C 25,4 C
27.05.2012 14:31 25,4 C 34 % 1020,6 hPa 0,0 l/m 8,3 km/h (2 Bft) O-SO 112 8,4 C 25,4 C
27.05.2012 14:36 25,4 C 35 % 1020,6 hPa 0,0 l/m 1,8 km/h (1 Bft) SO 135 8,8 C 25,4 C
27.05.2012 14:41 25,6 C 35 % 1020,4 hPa 0,0 l/m 5,0 km/h (1 Bft) S-SO 157 9,0 C 25,6 C
27.05.2012 14:46 25,9 C 34 % 1020,4 hPa 0,0 l/m 2,9 km/h (1 Bft) O-NO 67 8,8 C 25,9 C
27.05.2012 14:51 26,1 C 34 % 1020,3 hPa 0,0 l/m 6,8 km/h (2 Bft) NO 45 9,0 C 26,1 C
27.05.2012 14:56 25,6 C 33 % 1020,3 hPa 0,0 l/m 0,0 km/h (0 Bft) O-SO 112 8,1 C 25,6 C
27.05.2012 15:01 25,1 C 34 % 1020,3 hPa 0,0 l/m 0,0 km/h (0 Bft) O-NO 67 8,1 C 25,1 C
27.05.2012 15:06 24,8 C 35 % 1020,1 hPa 0,0 l/m 0,0 km/h (0 Bft) O-SO 112 8,3 C 24,8 C
27.05.2012 15:11 25,1 C 35 % 1019,9 hPa 0,0 l/m 2,2 km/h (1 Bft) S-SO 157 8,6 C 25,1 C
27.05.2012 15:16 25,3 C 35 % 1020,1 hPa 0,0 l/m 4,0 km/h (1 Bft) O-NO 67 8,7 C 25,3 C
27.05.2012 15:21 25,6 C 35 % 1019,8 hPa 0,0 l/m 8,6 km/h (2 Bft) O-NO 67 9,0 C 25,6 C
27.05.2012 15:26 25,3 C 35 % 1019,7 hPa 0,0 l/m 2,5 km/h (1 Bft) SO 135 8,7 C 25,3 C
27.05.2012 15:31 25,1 C 35 % 1019,8 hPa 0,0 l/m 1,1 km/h (1 Bft) O-SO 112 8,6 C 25,1 C
27.05.2012 15:36 25,0 C 35 % 1019,7 hPa 0,0 l/m 0,0 km/h (0 Bft) O-SO 112 8,5 C 25,0 C
27.05.2012 15:41 24,9 C 35 % 1019,7 hPa 0,0 l/m 2,5 km/h (1 Bft) SO 135 8,4 C 24,9 C
27.05.2012 15:46 24,9 C 35 % 1019,6 hPa 0,0 l/m 1,4 km/h (1 Bft) O-SO 112 8,4 C 24,9 C
27.05.2012 15:51 24,8 C 35 % 1019,6 hPa 0,0 l/m 6,1 km/h (2 Bft) NO 45 8,3 C 24,8 C
27.05.2012 15:56 24,6 C 36 % 1019,6 hPa 0,0 l/m 3,6 km/h (1 Bft) O 90 8,5 C 24,6 C
27.05.2012 16:01 24,6 C 36 % 1019,6 hPa 0,0 l/m 4,7 km/h (1 Bft) NO 45 8,5 C 24,6 C
27.05.2012 16:06 24,8 C 36 % 1019,6 hPa 0,0 l/m 6,8 km/h (2 Bft) O 90 8,7 C 24,8 C
27.05.2012 16:11 24,6 C 36 % 1019,6 hPa 0,0 l/m 5,0 km/h (1 Bft) O-NO 67 8,5 C 24,6 C
27.05.2012 16:16 24,7 C 35 % 1019,5 hPa 0,0 l/m 4,7 km/h (1 Bft) O-NO 67 8,2 C 24,7 C
27.05.2012 16:21 25,1 C 36 % 1019,4 hPa 0,0 l/m 4,7 km/h (1 Bft) O 90 9,0 C 25,1 C
27.05.2012 16:26 25,4 C 35 % 1019,3 hPa 0,0 l/m 5,4 km/h (1 Bft) SO 135 8,8 C 25,4 C
27.05.2012 16:31 25,6 C 35 % 1019,3 hPa 0,0 l/m 6,1 km/h (2 Bft) O-NO 67 9,0 C 25,6 C
27.05.2012 16:36 26,0 C 35 % 1019,3 hPa 0,0 l/m 0,0 km/h (0 Bft) O-NO 67 9,3 C 26,0 C
27.05.2012 16:41 26,2 C 34 % 1019,3 hPa 0,0 l/m 5,0 km/h (1 Bft) N-NO 22 9,1 C 26,2 C
27.05.2012 16:46 25,9 C 33 % 1019,2 hPa 0,0 l/m 5,4 km/h (1 Bft) O 90 8,4 C 25,9 C
27.05.2012 16:51 25,6 C 33 % 1019,2 hPa 0,0 l/m 6,5 km/h (2 Bft) N-NO 22 8,1 C 25,6 C
27.05.2012 16:56 25,4 C 33 % 1019,2 hPa 0,0 l/m 2,9 km/h (1 Bft) NO 45 7,9 C 25,4 C
27.05.2012 17:01 25,4 C 34 % 1019,2 hPa 0,0 l/m 7,2 km/h (2 Bft) N-NO 22 8,4 C 25,4 C
27.05.2012 17:06 25,2 C 35 % 1019,1 hPa 0,0 l/m 6,5 km/h (2 Bft) NO 45 8,6 C 25,2 C
27.05.2012 17:11 24,8 C 35 % 1019,1 hPa 0,0 l/m 5,8 km/h (2 Bft) O-NO 67 8,3 C 24,8 C
27.05.2012 17:16 24,5 C 36 % 1019,0 hPa 0,0 l/m 7,2 km/h (2 Bft) NO 45 8,4 C 24,5 C
27.05.2012 17:21 24,3 C 36 % 1019,0 hPa 0,0 l/m 3,6 km/h (1 Bft) NO 45 8,3 C 24,3 C
27.05.2012 17:26 24,2 C 36 % 1018,9 hPa 0,0 l/m 1,8 km/h (1 Bft) O-NO 67 8,2 C 24,2 C
27.05.2012 17:31 24,2 C 37 % 1018,9 hPa 0,0 l/m 2,5 km/h (1 Bft) O 90 8,6 C 24,2 C
27.05.2012 17:36 24,1 C 37 % 1018,9 hPa 0,0 l/m 9,4 km/h (2 Bft) NO 45 8,5 C 24,1 C
27.05.2012 17:41 24,0 C 37 % 1018,8 hPa 0,0 l/m 4,0 km/h (1 Bft) O-NO 67 8,4 C 24,0 C
27.05.2012 17:46 23,9 C 37 % 1018,8 hPa 0,0 l/m 8,3 km/h (2 Bft) O-SO 112 8,3 C 23,9 C
27.05.2012 17:51 23,9 C 37 % 1018,6 hPa 0,0 l/m 5,8 km/h (2 Bft) NO 45 8,3 C 23,9 C
27.05.2012 17:56 23,8 C 38 % 1018,7 hPa 0,0 l/m 5,8 km/h (2 Bft) N-NO 22 8,6 C 23,8 C
27.05.2012 18:01 23,6 C 38 % 1018,6 hPa 0,0 l/m 6,5 km/h (2 Bft) N-NO 22 8,4 C 23,6 C
27.05.2012 18:06 23,8 C 38 % 1018,6 hPa 0,0 l/m 11,5 km/h (2 Bft) N-NO 22 8,6 C 23,8 C
27.05.2012 18:11 23,9 C 38 % 1018,6 hPa 0,0 l/m 3,2 km/h (1 Bft) NO 45 8,7 C 23,9 C
27.05.2012 18:16 24,2 C 37 % 1018,6 hPa 0,0 l/m 7,9 km/h (2 Bft) N-NO 22 8,6 C 24,2 C
27.05.2012 18:21 24,1 C 37 % 1018,6 hPa 0,0 l/m 9,4 km/h (2 Bft) N-NO 22 8,5 C 24,1 C
27.05.2012 18:26 23,9 C 37 % 1018,6 hPa 0,0 l/m 5,4 km/h (1 Bft) O-NO 67 8,3 C 23,9 C
27.05.2012 18:31 23,9 C 38 % 1018,5 hPa 0,0 l/m 9,4 km/h (2 Bft) NO 45 8,7 C 23,9 C
27.05.2012 18:36 23,8 C 38 % 1018,4 hPa 0,0 l/m 5,8 km/h (2 Bft) O-NO 67 8,6 C 23,8 C
27.05.2012 18:41 23,8 C 38 % 1018,4 hPa 0,0 l/m 5,0 km/h (1 Bft) NO 45 8,6 C 23,8 C
27.05.2012 18:46 23,9 C 38 % 1018,4 hPa 0,0 l/m 5,0 km/h (1 Bft) N-NO 22 8,7 C 23,9 C
27.05.2012 18:51 23,9 C 38 % 1018,3 hPa 0,0 l/m 5,0 km/h (1 Bft) O-NO 67 8,7 C 23,9 C
27.05.2012 18:56 23,9 C 38 % 1018,3 hPa 0,0 l/m 5,4 km/h (1 Bft) O-NO 67 8,7 C 23,9 C
27.05.2012 19:01 24,1 C 38 % 1018,3 hPa 0,0 l/m 5,8 km/h (2 Bft) O-NO 67 8,9 C 24,1 C
27.05.2012 19:06 24,2 C 37 % 1018,2 hPa 0,0 l/m 4,7 km/h (1 Bft) O-NO 67 8,6 C 24,2 C
27.05.2012 19:11 24,2 C 37 % 1018,2 hPa 0,0 l/m 4,7 km/h (1 Bft) O-NO 67 8,6 C 24,2 C
27.05.2012 19:16 24,3 C 37 % 1018,0 hPa 0,0 l/m 4,7 km/h (1 Bft) O-NO 67 8,7 C 24,3 C
27.05.2012 19:21 24,1 C 37 % 1018,1 hPa 0,0 l/m 6,5 km/h (2 Bft) SO 135 8,5 C 24,1 C
27.05.2012 19:26 24,1 C 37 % 1018,1 hPa 0,0 l/m 2,2 km/h (1 Bft) NO 45 8,5 C 24,1 C
27.05.2012 19:31 23,9 C 37 % 1018,0 hPa 0,0 l/m 5,4 km/h (1 Bft) O 90 8,3 C 23,9 C
27.05.2012 19:36 23,9 C 37 % 1018,1 hPa 0,0 l/m 1,4 km/h (1 Bft) SO 135 8,3 C 23,9 C
27.05.2012 19:41 23,8 C 38 % 1018,1 hPa 0,0 l/m 4,0 km/h (1 Bft) O-SO 112 8,6 C 23,8 C
27.05.2012 19:46 23,6 C 38 % 1017,9 hPa 0,0 l/m 4,0 km/h (1 Bft) O 90 8,4 C 23,6 C
27.05.2012 19:51 23,6 C 38 % 1018,0 hPa 0,0 l/m 4,7 km/h (1 Bft) O 90 8,4 C 23,6 C
27.05.2012 19:56 23,4 C 38 % 1017,9 hPa 0,0 l/m 2,9 km/h (1 Bft) O-SO 112 8,3 C 23,4 C
27.05.2012 20:01 23,4 C 38 % 1017,8 hPa 0,0 l/m 2,5 km/h (1 Bft) O 90 8,3 C 23,4 C
27.05.2012 20:06 23,4 C 38 % 1017,9 hPa 0,0 l/m 2,9 km/h (1 Bft) O 90 8,3 C 23,4 C
27.05.2012 20:11 23,3 C 39 % 1017,8 hPa 0,0 l/m 7,2 km/h (2 Bft) O-SO 112 8,6 C 23,3 C
27.05.2012 20:16 23,2 C 40 % 1017,9 hPa 0,0 l/m 3,6 km/h (1 Bft) O 90 8,8 C 23,2 C
27.05.2012 20:21 23,0 C 40 % 1017,8 hPa 0,0 l/m 4,3 km/h (1 Bft) O-NO 67 8,7 C 23,0 C
27.05.2012 20:26 22,7 C 41 % 1017,9 hPa 0,0 l/m 3,6 km/h (1 Bft) O 90 8,8 C 22,7 C
27.05.2012 20:31 22,5 C 41 % 1017,7 hPa 0,0 l/m 4,0 km/h (1 Bft) O 90 8,6 C 22,5 C
27.05.2012 20:36 22,3 C 42 % 1017,8 hPa 0,0 l/m 4,7 km/h (1 Bft) O-NO 67 8,8 C 22,3 C
27.05.2012 20:41 22,1 C 43 % 1017,7 hPa 0,0 l/m 4,0 km/h (1 Bft) O-NO 67 8,9 C 22,1 C
27.05.2012 20:46 21,9 C 43 % 1017,7 hPa 0,0 l/m 4,0 km/h (1 Bft) O-NO 67 8,7 C 21,9 C
27.05.2012 20:51 21,8 C 43 % 1017,8 hPa 0,0 l/m 3,2 km/h (1 Bft) O-SO 112 8,7 C 21,8 C
27.05.2012 20:56 21,6 C 44 % 1017,8 hPa 0,0 l/m 3,2 km/h (1 Bft) O-NO 67 8,8 C 21,6 C
27.05.2012 21:01 21,6 C 44 % 1017,8 hPa 0,0 l/m 0,0 km/h (0 Bft) O 90 8,8 C 21,6 C
27.05.2012 21:06 21,4 C 44 % 1017,8 hPa 0,0 l/m 1,8 km/h (1 Bft) O 90 8,6 C 21,4 C
27.05.2012 21:11 21,4 C 44 % 1017,7 hPa 0,0 l/m 3,6 km/h (1 Bft) O-NO 67 8,6 C 21,4 C
27.05.2012 21:16 21,3 C 45 % 1017,6 hPa 0,0 l/m 2,2 km/h (1 Bft) O 90 8,9 C 21,3 C
27.05.2012 21:21 21,2 C 45 % 1017,6 hPa 0,0 l/m 3,2 km/h (1 Bft) O-NO 67 8,8 C 21,2 C
27.05.2012 21:26 21,0 C 45 % 1017,6 hPa 0,0 l/m 4,3 km/h (1 Bft) O-NO 67 8,6 C 21,0 C
27.05.2012 21:31 20,9 C 45 % 1017,6 hPa 0,0 l/m 4,3 km/h (1 Bft) O-NO 67 8,5 C 20,9 C
27.05.2012 21:36 20,6 C 45 % 1017,4 hPa 0,0 l/m 4,0 km/h (1 Bft) O-SO 112 8,2 C 20,6 C
27.05.2012 21:41 20,4 C 46 % 1017,6 hPa 0,0 l/m 4,0 km/h (1 Bft) O-NO 67 8,4 C 20,4 C
27.05.2012 21:46 20,2 C 47 % 1017,7 hPa 0,0 l/m 4,7 km/h (1 Bft) O-NO 67 8,5 C 20,2 C
27.05.2012 21:51 19,9 C 48 % 1017,7 hPa 0,0 l/m 4,3 km/h (1 Bft) NO 45 8,6 C 19,9 C
27.05.2012 21:56 19,8 C 48 % 1017,8 hPa 0,0 l/m 3,6 km/h (1 Bft) O-NO 67 8,5 C 19,8 C
27.05.2012 22:01 19,5 C 50 % 1017,8 hPa 0,0 l/m 4,3 km/h (1 Bft) NO 45 8,8 C 19,5 C
27.05.2012 22:06 19,3 C 50 % 1017,7 hPa 0,0 l/m 3,6 km/h (1 Bft) O-NO 67 8,6 C 19,3 C
27.05.2012 22:11 19,1 C 51 % 1017,8 hPa 0,0 l/m 7,6 km/h (2 Bft) O-NO 67 8,7 C 19,1 C
27.05.2012 22:16 18,9 C 52 % 1017,9 hPa 0,0 l/m 5,0 km/h (1 Bft) NO 45 8,8 C 18,9 C
27.05.2012 22:21 18,9 C 52 % 1017,9 hPa 0,0 l/m 4,3 km/h (1 Bft) O-NO 67 8,8 C 18,9 C
27.05.2012 22:26 18,6 C 53 % 1017,9 hPa 0,0 l/m 7,6 km/h (2 Bft) NO 45 8,8 C 18,6 C
27.05.2012 22:31 18,5 C 54 % 1017,9 hPa 0,0 l/m 7,2 km/h (2 Bft) O-SO 112 9,0 C 18,5 C
27.05.2012 22:36 18,4 C 54 % 1017,8 hPa 0,0 l/m 4,7 km/h (1 Bft) O 90 8,9 C 18,4 C
27.05.2012 22:41 18,2 C 55 % 1017,9 hPa 0,0 l/m 2,9 km/h (1 Bft) O 90 9,0 C 18,2 C
27.05.2012 22:46 18,1 C 55 % 1017,9 hPa 0,0 l/m 5,0 km/h (1 Bft) O 90 8,9 C 18,1 C
27.05.2012 22:51 17,9 C 55 % 1017,9 hPa 0,0 l/m 5,0 km/h (1 Bft) O-NO 67 8,7 C 17,9 C
27.05.2012 22:56 17,9 C 56 % 1017,9 hPa 0,0 l/m 2,2 km/h (1 Bft) O-NO 67 9,0 C 17,9 C
27.05.2012 23:01 17,8 C 56 % 1018,0 hPa 0,0 l/m 5,0 km/h (1 Bft) O-NO 67 8,9 C 17,8 C
27.05.2012 23:06 17,7 C 56 % 1018,0 hPa 0,0 l/m 4,7 km/h (1 Bft) O 90 8,8 C 17,7 C
27.05.2012 23:11 17,6 C 55 % 1018,0 hPa 0,0 l/m 4,0 km/h (1 Bft) O-NO 67 8,5 C 17,6 C
27.05.2012 23:16 17,4 C 56 % 1018,0 hPa 0,0 l/m 4,0 km/h (1 Bft) O 90 8,5 C 17,4 C
27.05.2012 23:21 17,4 C 55 % 1018,1 hPa 0,0 l/m 5,4 km/h (1 Bft) O-NO 67 8,3 C 17,4 C
27.05.2012 23:26 17,3 C 55 % 1018,0 hPa 0,0 l/m 9,7 km/h (2 Bft) O-NO 67 8,2 C 17,3 C
27.05.2012 23:31 17,2 C 55 % 1018,1 hPa 0,0 l/m 0,0 km/h (0 Bft) O-NO 67 8,1 C 17,2 C
27.05.2012 23:36 17,1 C 55 % 1018,1 hPa 0,0 l/m 1,8 km/h (1 Bft) NO 45 8,0 C 17,1 C
27.05.2012 23:41 17,0 C 55 % 1018,2 hPa 0,0 l/m 3,2 km/h (1 Bft) O 90 7,9 C 17,0 C
27.05.2012 23:46 17,0 C 55 % 1018,1 hPa 0,0 l/m 2,5 km/h (1 Bft) O 90 7,9 C 17,0 C
27.05.2012 23:51 16,9 C 55 % 1018,1 hPa 0,0 l/m 3,6 km/h (1 Bft) O-NO 67 7,8 C 16,9 C
27.05.2012 23:56 16,8 C 55 % 1018,0 hPa 0,0 l/m 3,6 km/h (1 Bft) O 90 7,7 C 16,8 C
_ Min-Zeit 05:36 14:01 21:36 - 00:01 - - 05:36 05:36
Minimum _ 13,9 C 33 % 1017,4 hPa - 0,0 km/h (0 Bft) - - 5,3 C 13,9 C
_ Max-Zeit 16:41 05:41 00:01 00:01 18:06 - - 16:36 16:41
Maximum _ 26,2 C 57 % 1023,7 hPa 0,0 l/m 11,5 km/h
N-NO (2 Bft)
- - 9,3 C 26,2 C
Durchschnitt _ 20,0 C 46 % 1021,1 hPa #0,0 l/m 2,6 km/h (1 Bft) O-NO - 7,7 C 20,0 C
(c) by David Heller